sensor_id;sensor_type;location;lat;lon;timestamp;pressure;altitude;pressure_sealevel;temperature;humidity
41202;BME280;26936;50.524;8.684;2023-11-22T00:01:17;100120.31;;;3.28;100.00
41202;BME280;26936;50.524;8.684;2023-11-22T00:03:43;100112.75;;;3.25;100.00
41202;BME280;26936;50.524;8.684;2023-11-22T00:06:09;100113.69;;;3.43;100.00
41202;BME280;26936;50.524;8.684;2023-11-22T00:08:37;100124.03;;;3.46;100.00
41202;BME280;26936;50.524;8.684;2023-11-22T00:11:05;100107.28;;;3.36;100.00
41202;BME280;26936;50.524;8.684;2023-11-22T00:13:31;100129.56;;;3.39;100.00
41202;BME280;26936;50.524;8.684;2023-11-22T00:15:57;100128.75;;;3.39;100.00
41202;BME280;26936;50.524;8.684;2023-11-22T00:18:23;100132.81;;;3.48;100.00
41202;BME280;26936;50.524;8.684;2023-11-22T00:20:52;100136.41;;;3.49;100.00
41202;BME280;26936;50.524;8.684;2023-11-22T00:23:17;100139.97;;;3.49;100.00
41202;BME280;26936;50.524;8.684;2023-11-22T00:25:43;100134.75;;;3.44;100.00
41202;BME280;26936;50.524;8.684;2023-11-22T00:28:08;100145.94;;;3.48;100.00
41202;BME280;26936;50.524;8.684;2023-11-22T00:30:34;100146.31;;;3.46;100.00
41202;BME280;26936;50.524;8.684;2023-11-22T00:32:59;100154.28;;;3.48;100.00
41202;BME280;26936;50.524;8.684;2023-11-22T00:35:24;100153.53;;;3.54;100.00
41202;BME280;26936;50.524;8.684;2023-11-22T00:37:50;100152.38;;;3.55;100.00
41202;BME280;26936;50.524;8.684;2023-11-22T00:40:15;100159.56;;;3.63;100.00
41202;BME280;26936;50.524;8.684;2023-11-22T00:42:41;100164.81;;;3.75;100.00
41202;BME280;26936;50.524;8.684;2023-11-22T00:45:12;100155.63;;;3.68;100.00
41202;BME280;26936;50.524;8.684;2023-11-22T00:47:37;100157.56;;;3.64;100.00
41202;BME280;26936;50.524;8.684;2023-11-22T00:50:09;100162.38;;;3.63;100.00
41202;BME280;26936;50.524;8.684;2023-11-22T00:52:35;100152.78;;;3.61;100.00
41202;BME280;26936;50.524;8.684;2023-11-22T00:55:03;100168.72;;;3.64;100.00
41202;BME280;26936;50.524;8.684;2023-11-22T00:57:30;100168.28;;;3.58;100.00
41202;BME280;26936;50.524;8.684;2023-11-22T00:59:56;100164.31;;;3.59;100.00
41202;BME280;26936;50.524;8.684;2023-11-22T01:02:21;100154.31;;;3.51;100.00
41202;BME280;26936;50.524;8.684;2023-11-22T01:04:47;100167.41;;;3.47;100.00
41202;BME280;26936;50.524;8.684;2023-11-22T01:07:12;100163.00;;;3.43;100.00
41202;BME280;26936;50.524;8.684;2023-11-22T01:09:38;100168.88;;;3.31;100.00
41202;BME280;26936;50.524;8.684;2023-11-22T01:12:03;100181.53;;;3.21;100.00
41202;BME280;26936;50.524;8.684;2023-11-22T01:14:29;100204.56;;;3.22;100.00
41202;BME280;26936;50.524;8.684;2023-11-22T01:16:54;100200.16;;;3.17;100.00
41202;BME280;26936;50.524;8.684;2023-11-22T01:19:28;100203.78;;;3.21;100.00
41202;BME280;26936;50.524;8.684;2023-11-22T01:21:56;100190.41;;;3.37;100.00
41202;BME280;26936;50.524;8.684;2023-11-22T01:24:22;100194.78;;;3.38;100.00
41202;BME280;26936;50.524;8.684;2023-11-22T01:26:51;100196.00;;;3.41;100.00
41202;BME280;26936;50.524;8.684;2023-11-22T01:29:16;100201.88;;;3.29;100.00
41202;BME280;26936;50.524;8.684;2023-11-22T01:31:47;100208.34;;;3.43;100.00
41202;BME280;26936;50.524;8.684;2023-11-22T01:34:12;100212.38;;;3.46;100.00
41202;BME280;26936;50.524;8.684;2023-11-22T01:36:42;100206.72;;;3.39;100.00
41202;BME280;26936;50.524;8.684;2023-11-22T01:39:08;100212.41;;;3.53;100.00
41202;BME280;26936;50.524;8.684;2023-11-22T01:41:34;100215.19;;;3.53;100.00
41202;BME280;26936;50.524;8.684;2023-11-22T01:43:59;100221.47;;;3.39;100.00
41202;BME280;26936;50.524;8.684;2023-11-22T01:46:24;100233.03;;;3.45;100.00
41202;BME280;26936;50.524;8.684;2023-11-22T01:48:51;100222.28;;;3.43;100.00
41202;BME280;26936;50.524;8.684;2023-11-22T01:51:20;100233.81;;;3.42;100.00
41202;BME280;26936;50.524;8.684;2023-11-22T01:53:46;100235.03;;;3.48;100.00
41202;BME280;26936;50.524;8.684;2023-11-22T01:56:12;100241.34;;;3.41;100.00
41202;BME280;26936;50.524;8.684;2023-11-22T01:58:38;100233.88;;;3.49;100.00
41202;BME280;26936;50.524;8.684;2023-11-22T02:01:04;100238.56;;;3.41;100.00
41202;BME280;26936;50.524;8.684;2023-11-22T02:03:30;100238.66;;;3.52;100.00
41202;BME280;26936;50.524;8.684;2023-11-22T02:05:55;100238.19;;;3.43;100.00
41202;BME280;26936;50.524;8.684;2023-11-22T02:08:20;100244.09;;;3.38;100.00
41202;BME280;26936;50.524;8.684;2023-11-22T02:10:57;100247.31;;;3.40;100.00
41202;BME280;26936;50.524;8.684;2023-11-22T02:13:22;100242.50;;;3.37;100.00
41202;BME280;26936;50.524;8.684;2023-11-22T02:15:48;100250.38;;;3.28;100.00
41202;BME280;26936;50.524;8.684;2023-11-22T02:18:13;100261.19;;;3.33;100.00
41202;BME280;26936;50.524;8.684;2023-11-22T02:20:39;100260.59;;;3.13;100.00
41202;BME280;26936;50.524;8.684;2023-11-22T02:23:08;100265.09;;;3.28;100.00
41202;BME280;26936;50.524;8.684;2023-11-22T02:25:34;100256.13;;;3.09;100.00
41202;BME280;26936;50.524;8.684;2023-11-22T02:28:00;100260.88;;;3.05;100.00
41202;BME280;26936;50.524;8.684;2023-11-22T02:30:30;100249.09;;;2.82;100.00
41202;BME280;26936;50.524;8.684;2023-11-22T02:32:55;100236.16;;;2.63;100.00
41202;BME280;26936;50.524;8.684;2023-11-22T02:35:21;100244.72;;;2.47;100.00
41202;BME280;26936;50.524;8.684;2023-11-22T02:37:49;100242.63;;;2.70;100.00
41202;BME280;26936;50.524;8.684;2023-11-22T02:40:18;100237.47;;;2.39;100.00
41202;BME280;26936;50.524;8.684;2023-11-22T02:42:46;100233.16;;;2.45;100.00
41202;BME280;26936;50.524;8.684;2023-11-22T02:45:24;100225.63;;;2.46;100.00
41202;BME280;26936;50.524;8.684;2023-11-22T02:47:49;100229.81;;;2.62;100.00
41202;BME280;26936;50.524;8.684;2023-11-22T02:50:15;100230.84;;;2.51;100.00
41202;BME280;26936;50.524;8.684;2023-11-22T02:52:48;100237.25;;;2.55;100.00
41202;BME280;26936;50.524;8.684;2023-11-22T02:55:14;100238.44;;;2.54;100.00
41202;BME280;26936;50.524;8.684;2023-11-22T02:57:40;100255.66;;;2.66;100.00
41202;BME280;26936;50.524;8.684;2023-11-22T03:00:11;100262.84;;;2.71;100.00
41202;BME280;26936;50.524;8.684;2023-11-22T03:02:43;100264.44;;;2.68;100.00
41202;BME280;26936;50.524;8.684;2023-11-22T03:05:10;100254.84;;;2.66;100.00
41202;BME280;26936;50.524;8.684;2023-11-22T03:07:36;100276.66;;;2.60;100.00
41202;BME280;26936;50.524;8.684;2023-11-22T03:10:03;100280.19;;;2.57;100.00
41202;BME280;26936;50.524;8.684;2023-11-22T03:12:28;100288.94;;;2.59;100.00
41202;BME280;26936;50.524;8.684;2023-11-22T03:14:59;100279.28;;;2.50;100.00
41202;BME280;26936;50.524;8.684;2023-11-22T03:17:29;100286.22;;;2.63;100.00
41202;BME280;26936;50.524;8.684;2023-11-22T03:19:56;100275.13;;;2.66;100.00
41202;BME280;26936;50.524;8.684;2023-11-22T03:22:25;100276.28;;;2.62;100.00
41202;BME280;26936;50.524;8.684;2023-11-22T03:24:50;100274.69;;;2.61;100.00
41202;BME280;26936;50.524;8.684;2023-11-22T03:27:16;100272.97;;;2.53;100.00
41202;BME280;26936;50.524;8.684;2023-11-22T03:29:41;100280.19;;;2.57;100.00
41202;BME280;26936;50.524;8.684;2023-11-22T03:32:07;100281.19;;;2.42;100.00
41202;BME280;26936;50.524;8.684;2023-11-22T03:34:32;100294.81;;;2.51;100.00
41202;BME280;26936;50.524;8.684;2023-11-22T03:36:58;100291.50;;;2.42;100.00
41202;BME280;26936;50.524;8.684;2023-11-22T03:39:23;100300.53;;;2.35;100.00
41202;BME280;26936;50.524;8.684;2023-11-22T03:41:48;100312.03;;;2.34;100.00
41202;BME280;26936;50.524;8.684;2023-11-22T03:44:16;100309.31;;;2.37;100.00
41202;BME280;26936;50.524;8.684;2023-11-22T03:46:41;100320.69;;;2.29;100.00
41202;BME280;26936;50.524;8.684;2023-11-22T03:49:06;100316.31;;;2.28;100.00
41202;BME280;26936;50.524;8.684;2023-11-22T03:51:33;100330.72;;;2.37;100.00
41202;BME280;26936;50.524;8.684;2023-11-22T03:53:58;100324.22;;;2.26;100.00
41202;BME280;26936;50.524;8.684;2023-11-22T03:56:24;100319.56;;;2.07;100.00
41202;BME280;26936;50.524;8.684;2023-11-22T03:58:50;100324.41;;;2.10;100.00
41202;BME280;26936;50.524;8.684;2023-11-22T04:01:15;100322.84;;;2.13;100.00
41202;BME280;26936;50.524;8.684;2023-11-22T04:03:46;100329.34;;;1.98;100.00
41202;BME280;26936;50.524;8.684;2023-11-22T04:06:11;100336.44;;;1.95;100.00
41202;BME280;26936;50.524;8.684;2023-11-22T04:08:39;100332.13;;;1.98;100.00
41202;BME280;26936;50.524;8.684;2023-11-22T04:11:04;100329.47;;;2.05;100.00
41202;BME280;26936;50.524;8.684;2023-11-22T04:13:31;100328.06;;;1.92;100.00
41202;BME280;26936;50.524;8.684;2023-11-22T04:15:56;100332.34;;;1.86;100.00
41202;BME280;26936;50.524;8.684;2023-11-22T04:18:21;100338.66;;;1.86;100.00
41202;BME280;26936;50.524;8.684;2023-11-22T04:20:46;100344.03;;;1.98;100.00
41202;BME280;26936;50.524;8.684;2023-11-22T04:23:13;100347.88;;;1.90;100.00
41202;BME280;26936;50.524;8.684;2023-11-22T04:25:41;100341.94;;;1.92;100.00
41202;BME280;26936;50.524;8.684;2023-11-22T04:28:07;100364.84;;;1.85;100.00
41202;BME280;26936;50.524;8.684;2023-11-22T04:30:34;100367.69;;;1.89;100.00
41202;BME280;26936;50.524;8.684;2023-11-22T04:32:59;100362.97;;;1.93;100.00
41202;BME280;26936;50.524;8.684;2023-11-22T04:35:28;100367.56;;;1.82;100.00
41202;BME280;26936;50.524;8.684;2023-11-22T04:37:53;100371.69;;;1.69;100.00
41202;BME280;26936;50.524;8.684;2023-11-22T04:40:20;100379.66;;;1.70;100.00
41202;BME280;26936;50.524;8.684;2023-11-22T04:42:45;100361.41;;;1.69;100.00
41202;BME280;26936;50.524;8.684;2023-11-22T04:45:13;100369.59;;;1.62;100.00
41202;BME280;26936;50.524;8.684;2023-11-22T04:47:41;100369.84;;;1.54;100.00
41202;BME280;26936;50.524;8.684;2023-11-22T04:50:07;100366.34;;;1.57;100.00
41202;BME280;26936;50.524;8.684;2023-11-22T04:52:32;100376.69;;;1.60;100.00
41202;BME280;26936;50.524;8.684;2023-11-22T04:54:58;100376.25;;;1.58;100.00
41202;BME280;26936;50.524;8.684;2023-11-22T04:57:23;100386.38;;;1.47;100.00
41202;BME280;26936;50.524;8.684;2023-11-22T04:59:48;100389.44;;;1.22;100.00
41202;BME280;26936;50.524;8.684;2023-11-22T05:02:14;100399.25;;;1.16;100.00
41202;BME280;26936;50.524;8.684;2023-11-22T05:04:39;100398.00;;;0.95;100.00
41202;BME280;26936;50.524;8.684;2023-11-22T05:07:04;100405.28;;;0.84;100.00
41202;BME280;26936;50.524;8.684;2023-11-22T05:09:30;100415.00;;;0.74;100.00
41202;BME280;26936;50.524;8.684;2023-11-22T05:11:55;100420.00;;;0.69;100.00
41202;BME280;26936;50.524;8.684;2023-11-22T05:14:20;100431.03;;;0.65;100.00
41202;BME280;26936;50.524;8.684;2023-11-22T05:16:46;100436.06;;;0.44;100.00
41202;BME280;26936;50.524;8.684;2023-11-22T05:19:11;100436.28;;;0.36;100.00
41202;BME280;26936;50.524;8.684;2023-11-22T05:21:36;100435.28;;;0.28;100.00
41202;BME280;26936;50.524;8.684;2023-11-22T05:24:01;100441.03;;;0.20;100.00
41202;BME280;26936;50.524;8.684;2023-11-22T05:26:27;100430.91;;;0.12;100.00
41202;BME280;26936;50.524;8.684;2023-11-22T05:28:52;100440.66;;;0.06;100.00
41202;BME280;26936;50.524;8.684;2023-11-22T05:31:19;100434.13;;;-0.02;100.00
41202;BME280;26936;50.524;8.684;2023-11-22T05:33:45;100445.13;;;-0.06;100.00
41202;BME280;26936;50.524;8.684;2023-11-22T05:36:11;100444.47;;;-0.15;100.00
41202;BME280;26936;50.524;8.684;2023-11-22T05:38:36;100442.78;;;-0.19;100.00
41202;BME280;26936;50.524;8.684;2023-11-22T05:41:03;100435.81;;;-0.29;100.00
41202;BME280;26936;50.524;8.684;2023-11-22T05:43:28;100440.72;;;-0.38;100.00
41202;BME280;26936;50.524;8.684;2023-11-22T05:45:54;100448.00;;;-0.45;100.00
41202;BME280;26936;50.524;8.684;2023-11-22T05:48:19;100449.06;;;-0.50;100.00
41202;BME280;26936;50.524;8.684;2023-11-22T05:50:45;100454.84;;;-0.55;100.00
41202;BME280;26936;50.524;8.684;2023-11-22T05:53:11;100463.44;;;-0.17;100.00
41202;BME280;26936;50.524;8.684;2023-11-22T05:55:36;100472.38;;;0.08;100.00
41202;BME280;26936;50.524;8.684;2023-11-22T05:58:03;100463.94;;;-0.11;100.00
41202;BME280;26936;50.524;8.684;2023-11-22T06:00:28;100477.63;;;-0.18;100.00
41202;BME280;26936;50.524;8.684;2023-11-22T06:02:54;100485.31;;;-0.12;100.00
41202;BME280;26936;50.524;8.684;2023-11-22T06:05:20;100486.91;;;-0.11;100.00
41202;BME280;26936;50.524;8.684;2023-11-22T06:07:45;100489.22;;;-0.28;100.00
41202;BME280;26936;50.524;8.684;2023-11-22T06:10:11;100501.06;;;0.00;100.00
41202;BME280;26936;50.524;8.684;2023-11-22T06:12:38;100504.41;;;-0.07;100.00
41202;BME280;26936;50.524;8.684;2023-11-22T06:15:04;100515.69;;;0.00;100.00
41202;BME280;26936;50.524;8.684;2023-11-22T06:17:29;100518.75;;;0.27;100.00
41202;BME280;26936;50.524;8.684;2023-11-22T06:19:55;100524.13;;;0.35;100.00
41202;BME280;26936;50.524;8.684;2023-11-22T06:22:20;100525.72;;;0.36;100.00
41202;BME280;26936;50.524;8.684;2023-11-22T06:24:46;100536.00;;;0.20;100.00
41202;BME280;26936;50.524;8.684;2023-11-22T06:27:13;100534.09;;;-0.07;100.00
41202;BME280;26936;50.524;8.684;2023-11-22T06:30:09;100525.31;;;-0.25;100.00
41202;BME280;26936;50.524;8.684;2023-11-22T06:32:38;100528.50;;;-0.23;100.00
41202;BME280;26936;50.524;8.684;2023-11-22T06:35:13;100524.34;;;-0.44;100.00
41202;BME280;26936;50.524;8.684;2023-11-22T06:37:40;100526.09;;;-0.52;100.00
41202;BME280;26936;50.524;8.684;2023-11-22T06:40:09;100521.97;;;-0.58;100.00
41202;BME280;26936;50.524;8.684;2023-11-22T06:42:38;100511.53;;;-0.76;100.00
41202;BME280;26936;50.524;8.684;2023-11-22T06:45:06;100511.22;;;-0.87;100.00
41202;BME280;26936;50.524;8.684;2023-11-22T06:47:44;100514.41;;;-0.85;100.00
41202;BME280;26936;50.524;8.684;2023-11-22T06:50:15;100536.31;;;-0.80;100.00
41202;BME280;26936;50.524;8.684;2023-11-22T06:52:41;100525.34;;;-0.76;100.00
41202;BME280;26936;50.524;8.684;2023-11-22T06:55:10;100545.88;;;-0.77;100.00
41202;BME280;26936;50.524;8.684;2023-11-22T06:57:37;100545.31;;;-0.83;100.00
41202;BME280;26936;50.524;8.684;2023-11-22T07:00:03;100543.78;;;-0.68;100.00
41202;BME280;26936;50.524;8.684;2023-11-22T07:02:54;100552.56;;;-0.39;100.00
41202;BME280;26936;50.524;8.684;2023-11-22T07:05:21;100541.59;;;-0.63;100.00
41202;BME280;26936;50.524;8.684;2023-11-22T07:07:46;100539.53;;;-0.66;100.00
41202;BME280;26936;50.524;8.684;2023-11-22T07:10:21;100569.53;;;-0.52;100.00
41202;BME280;26936;50.524;8.684;2023-11-22T07:12:47;100557.09;;;-0.46;100.00
41202;BME280;26936;50.524;8.684;2023-11-22T07:15:15;100556.69;;;-0.33;100.00
41202;BME280;26936;50.524;8.684;2023-11-22T07:17:47;100561.44;;;-0.33;100.00
41202;BME280;26936;50.524;8.684;2023-11-22T07:20:29;100562.28;;;-0.45;100.00
41202;BME280;26936;50.524;8.684;2023-11-22T07:23:05;100564.28;;;-0.57;100.00
41202;BME280;26936;50.524;8.684;2023-11-22T07:25:38;100561.56;;;-0.42;100.00
41202;BME280;26936;50.524;8.684;2023-11-22T07:28:10;100570.00;;;-0.50;100.00
41202;BME280;26936;50.524;8.684;2023-11-22T07:30:35;100564.88;;;-0.64;100.00
41202;BME280;26936;50.524;8.684;2023-11-22T07:33:15;100556.13;;;-0.78;100.00
41202;BME280;26936;50.524;8.684;2023-11-22T07:35:51;100566.16;;;-0.73;100.00
41202;BME280;26936;50.524;8.684;2023-11-22T07:38:20;100564.09;;;-0.76;100.00
41202;BME280;26936;50.524;8.684;2023-11-22T07:40:53;100556.00;;;-0.69;100.00
41202;BME280;26936;50.524;8.684;2023-11-22T07:43:37;100541.16;;;-0.77;100.00
41202;BME280;26936;50.524;8.684;2023-11-22T07:46:07;100548.09;;;-0.43;100.00
41202;BME280;26936;50.524;8.684;2023-11-22T07:48:50;100551.50;;;-0.34;100.00
41202;BME280;26936;50.524;8.684;2023-11-22T07:51:15;100553.28;;;-0.14;100.00
41202;BME280;26936;50.524;8.684;2023-11-22T07:53:42;100561.28;;;0.03;100.00
41202;BME280;26936;50.524;8.684;2023-11-22T07:56:22;100562.28;;;-0.17;100.00
41202;BME280;26936;50.524;8.684;2023-11-22T07:58:53;100565.34;;;-0.34;100.00
41202;BME280;26936;50.524;8.684;2023-11-22T08:01:21;100558.81;;;-0.42;100.00
41202;BME280;26936;50.524;8.684;2023-11-22T08:03:58;100575.31;;;-0.45;100.00
41202;BME280;26936;50.524;8.684;2023-11-22T08:06:25;100576.75;;;-0.36;100.00
41202;BME280;26936;50.524;8.684;2023-11-22T08:08:59;100574.59;;;-0.42;100.00
41202;BME280;26936;50.524;8.684;2023-11-22T08:11:32;100572.91;;;-0.19;100.00
41202;BME280;26936;50.524;8.684;2023-11-22T08:13:57;100574.19;;;-0.17;100.00
41202;BME280;26936;50.524;8.684;2023-11-22T08:16:25;100572.50;;;-0.06;100.00
41202;BME280;26936;50.524;8.684;2023-11-22T08:18:51;100572.56;;;0.41;100.00
41202;BME280;26936;50.524;8.684;2023-11-22T08:21:17;100572.16;;;0.39;100.00
41202;BME280;26936;50.524;8.684;2023-11-22T08:23:48;100554.88;;;0.30;100.00
41202;BME280;26936;50.524;8.684;2023-11-22T08:26:31;100573.38;;;0.26;100.00
41202;BME280;26936;50.524;8.684;2023-11-22T08:28:56;100572.81;;;0.21;100.00
41202;BME280;26936;50.524;8.684;2023-11-22T08:31:24;100563.91;;;0.27;100.00
41202;BME280;26936;50.524;8.684;2023-11-22T08:33:52;100569.09;;;0.29;100.00
41202;BME280;26936;50.524;8.684;2023-11-22T08:36:18;100594.13;;;0.48;100.00
41202;BME280;26936;50.524;8.684;2023-11-22T08:38:46;100592.97;;;0.64;100.00
41202;BME280;26936;50.524;8.684;2023-11-22T08:41:15;100589.31;;;0.76;100.00
41202;BME280;26936;50.524;8.684;2023-11-22T08:43:46;100595.56;;;1.04;100.00
41202;BME280;26936;50.524;8.684;2023-11-22T08:46:30;100589.69;;;1.24;98.18
41202;BME280;26936;50.524;8.684;2023-11-22T08:48:58;100587.69;;;1.40;97.75
41202;BME280;26936;50.524;8.684;2023-11-22T08:51:44;100609.97;;;1.44;97.62
41202;BME280;26936;50.524;8.684;2023-11-22T08:54:46;100624.13;;;1.39;97.86
41202;BME280;26936;50.524;8.684;2023-11-22T08:57:15;100593.19;;;1.21;99.69
41202;BME280;26936;50.524;8.684;2023-11-22T08:59:47;100598.22;;;1.16;100.00
41202;BME280;26936;50.524;8.684;2023-11-22T09:05:04;100603.22;;;1.26;100.00
41202;BME280;26936;50.524;8.684;2023-11-22T09:07:44;100609.66;;;1.14;100.00
41202;BME280;26936;50.524;8.684;2023-11-22T09:10:13;100615.66;;;1.16;99.73
41202;BME280;26936;50.524;8.684;2023-11-22T09:12:50;100622.53;;;1.38;97.76
41202;BME280;26936;50.524;8.684;2023-11-22T09:15:18;100613.03;;;1.39;99.43
41202;BME280;26936;50.524;8.684;2023-11-22T09:18:02;100608.97;;;1.52;100.00
41202;BME280;26936;50.524;8.684;2023-11-22T09:20:46;100613.22;;;1.65;96.62
41202;BME280;26936;50.524;8.684;2023-11-22T09:23:15;100601.16;;;1.77;95.83
41202;BME280;26936;50.524;8.684;2023-11-22T09:26:02;100616.09;;;1.88;95.53
41202;BME280;26936;50.524;8.684;2023-11-22T09:28:27;100613.19;;;1.81;94.08
41202;BME280;26936;50.524;8.684;2023-11-22T09:30:53;100615.66;;;2.05;91.85
41202;BME280;26936;50.524;8.684;2023-11-22T09:33:26;100620.03;;;1.87;91.55
41202;BME280;26936;50.524;8.684;2023-11-22T09:35:53;100624.94;;;1.93;89.96
41202;BME280;26936;50.524;8.684;2023-11-22T09:38:24;100634.88;;;1.75;92.14
41202;BME280;26936;50.524;8.684;2023-11-22T09:40:50;100641.69;;;1.97;88.69
41202;BME280;26936;50.524;8.684;2023-11-22T09:43:19;100649.94;;;1.93;89.52
41202;BME280;26936;50.524;8.684;2023-11-22T09:45:48;100648.78;;;2.32;82.72
41202;BME280;26936;50.524;8.684;2023-11-22T09:48:19;100653.59;;;2.35;84.76
41202;BME280;26936;50.524;8.684;2023-11-22T09:53:32;100664.69;;;2.96;78.18
41202;BME280;26936;50.524;8.684;2023-11-22T09:56:04;100654.03;;;2.79;74.28
41202;BME280;26936;50.524;8.684;2023-11-22T09:58:34;100651.31;;;2.83;73.47
41202;BME280;26936;50.524;8.684;2023-11-22T10:01:13;100643.25;;;2.77;75.98
41202;BME280;26936;50.524;8.684;2023-11-22T10:03:42;100636.47;;;2.52;79.17
41202;BME280;26936;50.524;8.684;2023-11-22T10:06:21;100619.59;;;2.64;76.65
41202;BME280;26936;50.524;8.684;2023-11-22T10:09:09;100648.22;;;2.65;76.14
41202;BME280;26936;50.524;8.684;2023-11-22T10:11:42;100648.59;;;2.86;76.17
41202;BME280;26936;50.524;8.684;2023-11-22T10:14:09;100639.91;;;3.14;74.57
41202;BME280;26936;50.524;8.684;2023-11-22T10:16:46;100627.94;;;3.10;75.51
41202;BME280;26936;50.524;8.684;2023-11-22T10:19:28;100630.56;;;3.25;74.52
41202;BME280;26936;50.524;8.684;2023-11-22T10:22:05;100624.47;;;3.42;72.46
41202;BME280;26936;50.524;8.684;2023-11-22T10:24:34;100627.81;;;3.81;71.61
41202;BME280;26936;50.524;8.684;2023-11-22T10:27:06;100636.03;;;4.00;69.32
41202;BME280;26936;50.524;8.684;2023-11-22T10:29:32;100631.78;;;3.80;70.68
41202;BME280;26936;50.524;8.684;2023-11-22T10:35:00;100633.63;;;3.98;70.00
41202;BME280;26936;50.524;8.684;2023-11-22T10:37:26;100645.84;;;3.90;69.78
41202;BME280;26936;50.524;8.684;2023-11-22T10:39:54;100650.94;;;4.11;68.79
41202;BME280;26936;50.524;8.684;2023-11-22T10:42:24;100652.53;;;4.12;66.40
41202;BME280;26936;50.524;8.684;2023-11-22T10:48:00;100649.84;;;3.89;70.20
41202;BME280;26936;50.524;8.684;2023-11-22T10:50:42;100648.06;;;3.78;69.61
41202;BME280;26936;50.524;8.684;2023-11-22T10:53:26;100645.69;;;4.09;66.20
41202;BME280;26936;50.524;8.684;2023-11-22T10:56:07;100656.19;;;4.19;67.03
41202;BME280;26936;50.524;8.684;2023-11-22T11:02:46;100664.16;;;3.88;64.38
41202;BME280;26936;50.524;8.684;2023-11-22T11:05:20;100667.03;;;3.69;66.36
41202;BME280;26936;50.524;8.684;2023-11-22T11:08:07;100676.31;;;3.76;66.94
41202;BME280;26936;50.524;8.684;2023-11-22T11:10:42;100670.34;;;4.04;67.16
41202;BME280;26936;50.524;8.684;2023-11-22T11:13:30;100657.50;;;4.29;68.48
41202;BME280;26936;50.524;8.684;2023-11-22T11:15:59;100671.00;;;4.24;67.98
41202;BME280;26936;50.524;8.684;2023-11-22T11:18:27;100666.81;;;4.40;66.08
41202;BME280;26936;50.524;8.684;2023-11-22T11:20:58;100678.63;;;4.30;64.74
41202;BME280;26936;50.524;8.684;2023-11-22T11:23:46;100681.94;;;4.09;66.92
41202;BME280;26936;50.524;8.684;2023-11-22T11:26:18;100691.06;;;4.06;69.47
41202;BME280;26936;50.524;8.684;2023-11-22T11:28:54;100677.72;;;4.22;67.43
41202;BME280;26936;50.524;8.684;2023-11-22T11:31:23;100681.00;;;3.98;64.44
41202;BME280;26936;50.524;8.684;2023-11-22T11:36:25;100669.66;;;3.84;65.18
41202;BME280;26936;50.524;8.684;2023-11-22T11:38:52;100661.81;;;3.93;65.97
41202;BME280;26936;50.524;8.684;2023-11-22T11:41:33;100674.06;;;4.15;64.71
41202;BME280;26936;50.524;8.684;2023-11-22T11:44:01;100659.75;;;4.16;66.92
41202;BME280;26936;50.524;8.684;2023-11-22T11:46:29;100657.22;;;4.38;65.74
41202;BME280;26936;50.524;8.684;2023-11-22T11:48:55;100657.72;;;4.47;64.00
41202;BME280;26936;50.524;8.684;2023-11-22T11:51:33;100648.16;;;4.48;64.64
41202;BME280;26936;50.524;8.684;2023-11-22T11:54:01;100638.06;;;4.36;66.17
41202;BME280;26936;50.524;8.684;2023-11-22T11:56:26;100635.56;;;4.24;66.96
41202;BME280;26936;50.524;8.684;2023-11-22T11:59:01;100623.44;;;4.46;65.17
41202;BME280;26936;50.524;8.684;2023-11-22T12:01:52;100625.75;;;4.37;67.13
41202;BME280;26936;50.524;8.684;2023-11-22T12:04:28;100632.84;;;4.68;65.76
41202;BME280;26936;50.524;8.684;2023-11-22T12:07:10;100635.34;;;4.76;65.00
41202;BME280;26936;50.524;8.684;2023-11-22T12:09:41;100613.81;;;4.80;65.56
41202;BME280;26936;50.524;8.684;2023-11-22T12:12:14;100599.72;;;4.63;66.64
41202;BME280;26936;50.524;8.684;2023-11-22T12:15:09;100609.59;;;4.97;62.23
41202;BME280;26936;50.524;8.684;2023-11-22T12:17:45;100634.34;;;4.98;61.40
41202;BME280;26936;50.524;8.684;2023-11-22T12:20:14;100633.31;;;4.77;61.55
41202;BME280;26936;50.524;8.684;2023-11-22T12:22:45;100624.91;;;4.73;60.64
41202;BME280;26936;50.524;8.684;2023-11-22T12:25:14;100637.72;;;4.78;62.90
41202;BME280;26936;50.524;8.684;2023-11-22T12:27:43;100627.16;;;4.97;61.88
41202;BME280;26936;50.524;8.684;2023-11-22T12:30:27;100628.19;;;4.82;61.26
41202;BME280;26936;50.524;8.684;2023-11-22T12:32:53;100642.38;;;4.67;61.66
41202;BME280;26936;50.524;8.684;2023-11-22T12:35:19;100639.19;;;4.65;63.10
41202;BME280;26936;50.524;8.684;2023-11-22T12:37:44;100642.00;;;4.68;62.94
41202;BME280;26936;50.524;8.684;2023-11-22T12:40:10;100626.31;;;4.53;62.54
41202;BME280;26936;50.524;8.684;2023-11-22T12:42:46;100620.38;;;4.98;61.38
41202;BME280;26936;50.524;8.684;2023-11-22T12:45:23;100614.31;;;4.89;60.44
41202;BME280;26936;50.524;8.684;2023-11-22T12:47:52;100624.16;;;5.20;60.51
41202;BME280;26936;50.524;8.684;2023-11-22T12:50:37;100618.06;;;5.11;61.88
41202;BME280;26936;50.524;8.684;2023-11-22T12:53:13;100613.94;;;5.45;60.21
41202;BME280;26936;50.524;8.684;2023-11-22T12:55:42;100588.50;;;5.61;60.64
41202;BME280;26936;50.524;8.684;2023-11-22T12:58:12;100585.41;;;5.80;59.67
41202;BME280;26936;50.524;8.684;2023-11-22T13:00:41;100585.56;;;6.04;59.95
41202;BME280;26936;50.524;8.684;2023-11-22T13:03:07;100580.47;;;6.41;58.35
41202;BME280;26936;50.524;8.684;2023-11-22T13:05:38;100562.41;;;6.11;57.97
41202;BME280;26936;50.524;8.684;2023-11-22T13:08:05;100555.28;;;6.27;57.63
41202;BME280;26936;50.524;8.684;2023-11-22T13:10:30;100545.28;;;6.30;57.77
41202;BME280;26936;50.524;8.684;2023-11-22T13:12:57;100546.16;;;6.86;56.05
41202;BME280;26936;50.524;8.684;2023-11-22T13:15:23;100549.94;;;8.70;51.29
41202;BME280;26936;50.524;8.684;2023-11-22T13:17:52;100547.75;;;8.95;48.09
41202;BME280;26936;50.524;8.684;2023-11-22T13:20:24;100532.25;;;9.21;47.33